Terminal Aerodrome Forecast
Issued by NWS Sioux Falls, SD

Home | Current Version | Previous Version | Graphics & Text | Print | Product List | Glossary On
Versions: 1 2 3 4 5 6 7 8 9 10 11 12 13 14 15 16 17
000
FTUS43 KFSD 220539
TAFFSD
TAF
KFSD 220539Z 2206/2306 08005KT P6SM SCT015 BKN200
      TEMPO 2206/2207 BKN012
     FM220745 VRB12G35KT 4SM TSRA OVC015CB
     FM220815 VRB09KT P6SM -TSRA OVC025CB
     FM220830 01006KT P6SM SCT015 BKN250
     FM221400 32008KT P6SM FEW250
     FM221900 32010KT P6SM FEW150
     FM230100 32005KT P6SM SKC=

USA.gov is the U.S. government's official web portal to all federal, state and local government web resources and services.